logo
Search for airport 
image banner adimage banner adimage banner ad
image banner ad

LSXP - Pfaffnau

Located in , Switzerland

ICAO - LSXP, IATA -

Data provided by Airmate  

General information

Coordinates: N47°14'7" E7°54'36"
Elevation is 1774 feet MSL.
Magnetic variation is 1.997° East
View others Airports in Lucerne

Operational data

Special qualification required
Current time UTC:
Current local time:
Weather at : LSME - Emmen ( 34 km )
METAR: LSME 140120Z AUTO 22004KT 9999NDV NCD 10/09 Q1026 RMK
View NOTAMs / SUP AIP / TFR affecting this airport [VIEW]
Communications frequencies: [VIEW]

Runways:

Airport contact information

Address: Switzerland

Satellite view of LSXP